Time;durP1;ratioP1;P1;durP2;ratioP2;P2;SDS_P1;SDS_P2;PMS_P1;PMS_P2;Temp;Humidity;BMP_temperature;BMP_pressure;BME280_temperature;BME280_humidity;BME280_pressure;Samples;Min_cycle;Max_cycle;Signal;HPM_P1;HPM_P2
2023/05/19 00:00:43;;;;;;;12.93;6.22;;;13.10;99.90;;;;;;5072472;28;20044;-71
2023/05/19 00:03:11;;;;;;;11.63;5.97;;;13.10;99.90;;;;;;5072693;28;20032;-71
2023/05/19 00:05:44;;;;;;;9.63;5.60;;;13.10;99.90;;;;;;5104508;28;20025;-69
2023/05/19 00:08:10;;;;;;;15.02;6.10;;;12.90;99.90;;;;;;5072502;28;20036;-70
2023/05/19 00:10:37;;;;;;;10.90;5.35;;;12.90;99.90;;;;;;5072637;28;20491;-71
2023/05/19 00:13:03;;;;;;;13.05;5.40;;;12.90;99.90;;;;;;5072291;28;20036;-69
2023/05/19 00:15:29;;;;;;;11.18;5.43;;;12.70;99.90;;;;;;5072592;28;20028;-69
2023/05/19 00:17:55;;;;;;;13.27;5.75;;;12.80;99.90;;;;;;5072423;28;20048;-70
2023/05/19 00:20:21;;;;;;;17.75;5.25;;;13.00;99.90;;;;;;5072362;28;20574;-70
2023/05/19 00:22:47;;;;;;;9.23;4.93;;;13.00;99.90;;;;;;5072401;28;20025;-71
2023/05/19 00:25:13;;;;;;;11.82;5.18;;;13.20;99.90;;;;;;5072142;28;20370;-70
2023/05/19 00:27:38;;;;;;;12.63;5.13;;;13.20;99.90;;;;;;5072159;28;20059;-71
2023/05/19 00:30:05;;;;;;;10.73;4.63;;;13.20;99.90;;;;;;5071906;28;20033;-71
2023/05/19 00:32:30;;;;;;;11.85;4.88;;;13.20;99.90;;;;;;5072269;28;20541;-71
2023/05/19 00:34:56;;;;;;;12.32;4.75;;;13.20;99.90;;;;;;5071903;28;20131;-70
2023/05/19 00:37:22;;;;;;;10.55;4.68;;;13.20;99.90;;;;;;5072353;28;20398;-70
2023/05/19 00:39:48;;;;;;;11.50;4.88;;;13.20;99.90;;;;;;5072016;28;20036;-70
2023/05/19 00:42:14;;;;;;;10.05;4.47;;;13.10;99.90;;;;;;5071997;28;20035;-70
2023/05/19 00:44:40;;;;;;;11.25;4.93;;;13.10;99.90;;;;;;5071939;28;20024;-71
2023/05/19 00:47:07;;;;;;;9.55;4.20;;;13.10;99.90;;;;;;5071683;28;20032;-70
2023/05/19 00:49:32;;;;;;;9.90;4.80;;;13.00;99.90;;;;;;5072007;28;20395;-71
2023/05/19 00:52:00;;;;;;;9.38;4.28;;;13.00;99.90;;;;;;5071927;28;20035;-70
2023/05/19 00:54:27;;;;;;;9.07;4.00;;;12.90;99.90;;;;;;5071659;28;20024;-71
2023/05/19 00:56:54;;;;;;;8.23;3.90;;;12.90;99.90;;;;;;5071721;28;20534;-70
2023/05/19 00:59:20;;;;;;;7.80;4.45;;;12.90;99.90;;;;;;5071543;28;20046;-69
2023/05/19 01:01:48;;;;;;;8.25;4.20;;;12.90;99.90;;;;;;5071679;28;20028;-70
2023/05/19 01:04:18;;;;;;;8.70;4.45;;;12.90;99.90;;;;;;5071671;28;20680;-70
2023/05/19 01:06:48;;;;;;;7.15;4.40;;;12.90;99.90;;;;;;5071831;28;20119;-69
2023/05/19 01:09:15;;;;;;;7.78;4.15;;;12.80;99.90;;;;;;5071504;28;20402;-70
2023/05/19 01:11:40;;;;;;;10.90;3.97;;;12.70;99.90;;;;;;5071450;28;20024;-70
2023/05/19 01:14:06;;;;;;;7.72;4.13;;;12.50;99.90;;;;;;5069857;28;20533;-70
2023/05/19 01:17:13;;;;;;;8.07;4.38;;;12.50;99.90;;;;;;5071534;28;20024;-69
2023/05/19 01:19:55;;;;;;;10.10;4.05;;;12.60;99.90;;;;;;5071721;28;20025;-70
2023/05/19 01:22:58;;;;;;;8.10;4.15;;;12.60;99.90;;;;;;5070695;28;20470;-69
2023/05/19 01:25:57;;;;;;;7.78;3.70;;;12.60;99.90;;;;;;5071322;28;20437;-70
2023/05/19 01:28:45;;;;;;;7.47;3.90;;;12.50;99.90;;;;;;5070944;28;20031;-70
2023/05/19 01:31:12;;;;;;;6.93;3.60;;;12.60;99.90;;;;;;5086058;28;20043;-70
2023/05/19 01:33:40;;;;;;;8.60;4.00;;;12.50;99.90;;;;;;5090893;28;20024;-69
2023/05/19 01:36:07;;;;;;;5.13;3.42;;;12.50;99.90;;;;;;5091290;28;20048;-70
2023/05/19 01:38:35;;;;;;;8.45;3.72;;;12.50;99.90;;;;;;5091383;28;20081;-69
2023/05/19 01:41:03;;;;;;;7.68;3.75;;;12.50;99.90;;;;;;5091684;28;20024;-70
2023/05/19 01:43:29;;;;;;;9.07;3.92;;;12.50;99.90;;;;;;5090979;28;20028;-70
2023/05/19 01:45:57;;;;;;;7.95;3.83;;;12.50;99.90;;;;;;5091345;28;20054;-70
2023/05/19 01:48:24;;;;;;;6.40;3.88;;;12.50;99.90;;;;;;5091084;28;20059;-70
2023/05/19 01:50:50;;;;;;;7.97;3.60;;;12.60;99.90;;;;;;5091366;28;20134;-70
2023/05/19 01:53:16;;;;;;;9.65;3.92;;;12.60;99.90;;;;;;5091242;28;20024;-70
2023/05/19 01:55:47;;;;;;;13.43;3.85;;;12.60;99.90;;;;;;5091432;28;20257;-70
2023/05/19 01:58:43;;;;;;;9.18;4.22;;;12.70;99.90;;;;;;5090690;28;20024;-69
2023/05/19 02:01:18;;;;;;;7.25;3.50;;;12.70;99.90;;;;;;5091083;28;20024;-69
2023/05/19 02:04:05;;;;;;;6.63;3.65;;;12.80;99.90;;;;;;5091230;28;20028;-70
2023/05/19 02:06:54;;;;;;;5.38;3.30;;;12.90;99.90;;;;;;5091008;28;20043;-68
2023/05/19 02:09:51;;;;;;;6.45;3.40;;;12.90;99.90;;;;;;5068435;28;20114;-69
2023/05/19 02:12:27;;;;;;;8.05;3.65;;;13.00;99.90;;;;;;5068123;28;20028;-70
2023/05/19 02:15:01;;;;;;;8.38;3.80;;;13.00;99.90;;;;;;5068416;28;20029;-70
2023/05/19 02:17:31;;;;;;;8.43;3.50;;;13.00;99.90;;;;;;5068494;28;20508;-70
2023/05/19 02:19:58;;;;;;;8.73;3.60;;;13.00;99.90;;;;;;5068420;28;20550;-70
2023/05/19 02:22:23;;;;;;;8.13;3.90;;;13.00;99.90;;;;;;5068408;28;20040;-70
2023/05/19 02:24:50;;;;;;;7.18;3.38;;;13.00;99.90;;;;;;5068312;28;20029;-70
2023/05/19 02:27:17;;;;;;;11.55;3.85;;;13.00;99.90;;;;;;5067983;28;20044;-70
2023/05/19 02:29:43;;;;;;;6.93;3.67;;;13.00;99.90;;;;;;5068227;28;20111;-70
2023/05/19 02:32:09;;;;;;;9.13;3.83;;;13.00;99.90;;;;;;5068158;28;20107;-70
2023/05/19 02:34:35;;;;;;;10.00;3.58;;;12.90;99.90;;;;;;5051552;28;20587;-69
2023/05/19 02:37:01;;;;;;;6.95;3.70;;;12.90;99.90;;;;;;5068309;28;20175;-69
2023/05/19 02:39:28;;;;;;;6.25;3.40;;;12.90;99.90;;;;;;5068173;28;20414;-70
2023/05/19 02:41:53;;;;;;;7.28;3.78;;;12.90;99.90;;;;;;5068018;28;20033;-70
2023/05/19 02:44:19;;;;;;;5.57;3.47;;;12.90;99.90;;;;;;5068280;28;20020;-71
2023/05/19 02:46:45;;;;;;;8.73;3.45;;;12.80;99.90;;;;;;5073222;28;20045;-70
2023/05/19 02:49:10;;;;;;;7.93;3.97;;;12.80;99.90;;;;;;5074389;28;20427;-70
2023/05/19 02:51:36;;;;;;;7.60;3.60;;;12.80;99.90;;;;;;5073950;28;20043;-69
2023/05/19 02:54:02;;;;;;;5.72;3.58;;;12.80;99.90;;;;;;5073917;28;20031;-69
2023/05/19 02:56:27;;;;;;;7.45;3.50;;;12.80;99.90;;;;;;5073725;28;20063;-70
2023/05/19 02:58:53;;;;;;;6.57;3.83;;;12.80;99.90;;;;;;5074143;28;20025;-70
2023/05/19 03:01:21;;;;;;;8.00;3.80;;;12.80;99.90;;;;;;5074122;28;20040;-70
2023/05/19 03:03:47;;;;;;;7.22;3.78;;;12.80;99.90;;;;;;5073597;28;20160;-71
2023/05/19 03:06:14;;;;;;;5.97;3.30;;;12.80;99.90;;;;;;5074119;28;20502;-71
2023/05/19 03:08:40;;;;;;;7.47;3.47;;;12.80;99.90;;;;;;5073865;28;20394;-69
2023/05/19 03:11:05;;;;;;;7.35;3.50;;;12.70;99.90;;;;;;5072100;28;20021;-69
2023/05/19 03:13:31;;;;;;;6.70;3.65;;;12.70;99.90;;;;;;5073509;28;20028;-71
2023/05/19 03:15:58;;;;;;;10.65;3.75;;;12.70;99.90;;;;;;5073798;28;20081;-70
2023/05/19 03:18:24;;;;;;;7.57;3.78;;;12.60;99.90;;;;;;5073595;28;20023;-70
2023/05/19 03:20:52;;;;;;;7.28;3.60;;;12.50;99.90;;;;;;5073921;28;20028;-70
2023/05/19 03:23:19;;;;;;;8.60;3.90;;;12.50;99.90;;;;;;5073440;28;20020;-70
2023/05/19 03:25:44;;;;;;;7.60;3.75;;;12.50;99.90;;;;;;5073230;28;20032;-70
2023/05/19 03:28:10;;;;;;;7.28;3.78;;;12.50;99.90;;;;;;5073374;28;20507;-70
2023/05/19 03:30:36;;;;;;;7.63;3.85;;;12.50;99.90;;;;;;5073625;28;20028;-70
2023/05/19 03:33:01;;;;;;;7.20;3.80;;;12.50;99.90;;;;;;5073310;28;20025;-70
2023/05/19 03:35:27;;;;;;;7.18;3.90;;;12.40;99.90;;;;;;5073203;28;20052;-71
2023/05/19 03:37:53;;;;;;;6.03;3.90;;;12.40;99.90;;;;;;5073239;28;20013;-71
2023/05/19 03:40:19;;;;;;;6.53;3.47;;;12.40;99.90;;;;;;5072148;28;20035;-71
2023/05/19 03:42:44;;;;;;;8.88;4.40;;;12.40;99.90;;;;;;5072895;28;20518;-70
2023/05/19 03:45:10;;;;;;;8.90;4.18;;;12.30;99.90;;;;;;5073079;28;20025;-70
2023/05/19 03:47:36;;;;;;;11.00;4.93;;;12.30;99.90;;;;;;5073259;28;20040;-70
2023/05/19 03:50:02;;;;;;;7.40;3.72;;;12.30;99.90;;;;;;5072876;28;20024;-70
2023/05/19 03:52:27;;;;;;;10.32;4.32;;;12.30;99.90;;;;;;5072882;28;20028;-71
2023/05/19 03:54:53;;;;;;;8.80;4.40;;;12.30;99.90;;;;;;5072670;28;20475;-71
2023/05/19 03:57:19;;;;;;;11.32;4.32;;;12.30;99.90;;;;;;5072642;28;20494;-70
2023/05/19 03:59:45;;;;;;;7.80;3.88;;;12.20;99.90;;;;;;5072677;28;20032;-71
2023/05/19 04:02:11;;;;;;;6.97;3.50;;;12.20;99.90;;;;;;5073047;28;20510;-70
2023/05/19 04:04:36;;;;;;;7.18;4.07;;;12.10;99.90;;;;;;5072556;28;20514;-71
2023/05/19 04:07:02;;;;;;;8.13;4.35;;;12.10;99.90;;;;;;5072432;28;20036;-70
2023/05/19 04:09:30;;;;;;;7.63;4.50;;;12.10;99.90;;;;;;5072297;28;20025;-71
2023/05/19 04:11:56;;;;;;;7.95;4.22;;;12.00;99.90;;;;;;5073047;28;20034;-70
2023/05/19 04:14:22;;;;;;;7.32;3.75;;;11.90;99.90;;;;;;5072469;28;20025;-70
2023/05/19 04:16:48;;;;;;;7.90;4.15;;;12.00;99.90;;;;;;5072565;28;20070;-70
2023/05/19 04:19:14;;;;;;;6.60;3.80;;;11.90;99.90;;;;;;5072666;28;20021;-70
2023/05/19 04:21:39;;;;;;;8.88;3.65;;;11.80;99.90;;;;;;5071914;28;20067;-69
2023/05/19 04:24:05;;;;;;;7.95;3.90;;;11.80;99.90;;;;;;5072217;28;20064;-70
2023/05/19 04:26:33;;;;;;;8.55;4.05;;;11.80;99.90;;;;;;5072242;28;20123;-71
2023/05/19 04:28:59;;;;;;;10.30;4.43;;;11.80;99.90;;;;;;5072380;28;20052;-70
2023/05/19 04:31:26;;;;;;;6.88;4.07;;;11.80;99.90;;;;;;5088533;28;20028;-71
2023/05/19 04:33:52;;;;;;;7.97;4.25;;;11.80;99.90;;;;;;5092328;28;20030;-70
2023/05/19 04:36:20;;;;;;;8.85;3.83;;;11.80;99.90;;;;;;5091978;28;20035;-70
2023/05/19 04:38:46;;;;;;;6.30;3.95;;;11.80;99.90;;;;;;5091217;28;20020;-70
2023/05/19 04:41:12;;;;;;;8.63;3.80;;;11.80;99.90;;;;;;5092423;28;20039;-70
2023/05/19 04:43:40;;;;;;;6.97;4.00;;;11.80;99.90;;;;;;5092643;28;20104;-70
2023/05/19 04:46:06;;;;;;;6.75;4.03;;;11.80;99.90;;;;;;5092140;28;20402;-71
2023/05/19 04:48:32;;;;;;;8.40;4.40;;;11.80;99.90;;;;;;5092060;28;20091;-70
2023/05/19 04:51:00;;;;;;;6.68;4.05;;;11.70;99.90;;;;;;5091702;28;20558;-70
2023/05/19 04:53:30;;;;;;;9.70;4.60;;;11.70;99.90;;;;;;5092034;28;20709;-70
2023/05/19 04:55:56;;;;;;;7.93;4.00;;;11.80;99.90;;;;;;5092019;28;20024;-70
2023/05/19 04:58:25;;;;;;;7.75;3.92;;;11.70;99.90;;;;;;5092052;28;20055;-70
2023/05/19 05:00:51;;;;;;;7.03;3.97;;;11.80;99.90;;;;;;5092268;28;20020;-70
2023/05/19 05:03:17;;;;;;;7.30;3.83;;;11.80;99.90;;;;;;5091839;28;20035;-71
2023/05/19 05:05:43;;;;;;;9.85;3.97;;;11.90;99.90;;;;;;5091246;28;20036;-71
2023/05/19 05:08:11;;;;;;;6.50;3.88;;;11.90;99.90;;;;;;5089723;28;20039;-70
2023/05/19 05:10:37;;;;;;;9.27;3.83;;;12.00;99.90;;;;;;5091743;28;20056;-70
2023/05/19 05:13:03;;;;;;;7.22;3.70;;;11.90;99.90;;;;;;5091692;28;20513;-70
2023/05/19 05:15:29;;;;;;;6.72;4.10;;;11.90;99.90;;;;;;5092068;28;20513;-71
2023/05/19 05:17:55;;;;;;;9.63;3.95;;;11.90;99.90;;;;;;5091375;28;20093;-71
2023/05/19 05:20:21;;;;;;;9.07;3.95;;;11.90;99.90;;;;;;5090224;28;20671;-71
2023/05/19 05:22:47;;;;;;;9.95;3.95;;;12.00;99.90;;;;;;5091416;28;20024;-70
2023/05/19 05:25:15;;;;;;;10.07;4.20;;;11.90;99.90;;;;;;5091571;28;20111;-70
2023/05/19 05:27:40;;;;;;;8.55;4.35;;;11.90;99.90;;;;;;5091481;28;20030;-70
2023/05/19 05:30:07;;;;;;;6.43;3.83;;;11.90;99.90;;;;;;5086244;28;20032;-71
2023/05/19 05:32:33;;;;;;;8.18;4.05;;;11.90;99.90;;;;;;5071399;28;20020;-70
2023/05/19 05:34:58;;;;;;;11.07;4.20;;;12.00;99.90;;;;;;5070748;28;20098;-70
2023/05/19 05:37:25;;;;;;;9.63;4.07;;;12.00;99.90;;;;;;5071362;28;20518;-70
2023/05/19 05:39:51;;;;;;;10.55;4.30;;;11.90;99.90;;;;;;5071198;28;20040;-70
2023/05/19 05:42:17;;;;;;;9.43;4.03;;;12.00;99.90;;;;;;5070983;28;20029;-71
2023/05/19 05:44:42;;;;;;;10.15;4.20;;;12.10;99.90;;;;;;5071131;28;20090;-68
2023/05/19 05:47:10;;;;;;;6.15;3.70;;;12.10;99.90;;;;;;5071132;28;20036;-70
2023/05/19 05:49:36;;;;;;;8.05;4.35;;;12.10;99.90;;;;;;5070475;28;20024;-70
2023/05/19 05:52:03;;;;;;;7.18;3.97;;;12.00;99.90;;;;;;5071344;28;20176;-71
2023/05/19 05:54:30;;;;;;;10.85;4.20;;;12.20;99.90;;;;;;5070967;28;20033;-71
2023/05/19 05:56:56;;;;;;;7.97;3.80;;;12.20;99.90;;;;;;5070858;28;20025;-71
2023/05/19 05:59:21;;;;;;;7.28;3.78;;;12.10;99.90;;;;;;5070890;28;20491;-71
2023/05/19 06:01:47;;;;;;;9.70;4.13;;;12.10;99.90;;;;;;5070783;28;20078;-71
2023/05/19 06:04:13;;;;;;;7.43;3.72;;;12.20;99.90;;;;;;5070619;28;20029;-70
2023/05/19 06:06:38;;;;;;;7.53;4.00;;;12.10;99.90;;;;;;5069591;28;20048;-71
2023/05/19 06:09:04;;;;;;;7.82;3.70;;;12.10;99.90;;;;;;5070875;28;20025;-72
2023/05/19 06:11:31;;;;;;;7.50;4.32;;;12.20;99.90;;;;;;5071040;28;20028;-72
2023/05/19 06:13:57;;;;;;;6.75;3.83;;;12.30;99.90;;;;;;5071082;28;20561;-71
2023/05/19 06:16:22;;;;;;;9.50;4.55;;;12.30;99.90;;;;;;5070612;28;20123;-72
2023/05/19 06:18:48;;;;;;;8.50;4.00;;;12.30;99.90;;;;;;5071483;28;20028;-71
2023/05/19 06:21:14;;;;;;;9.02;4.03;;;12.40;99.90;;;;;;5073811;28;20039;-71
2023/05/19 06:23:40;;;;;;;8.25;4.90;;;12.40;99.90;;;;;;5074658;28;20017;-72
2023/05/19 06:26:05;;;;;;;12.05;6.10;;;12.40;99.90;;;;;;5073253;28;20036;-73
2023/05/19 06:28:32;;;;;;;9.00;7.47;;;12.50;99.90;;;;;;5079285;28;20103;-71
2023/05/19 06:30:58;;;;;;;10.25;7.05;;;12.50;99.90;;;;;;5092487;28;20020;-71
2023/05/19 06:33:24;;;;;;;9.48;6.03;;;12.50;99.90;;;;;;5091977;28;20043;-72
2023/05/19 06:35:50;;;;;;;10.88;7.85;;;12.60;99.90;;;;;;5094731;28;20051;-71
2023/05/19 06:38:17;;;;;;;10.00;5.15;;;12.60;99.90;;;;;;5094451;28;20402;-71
2023/05/19 06:40:42;;;;;;;8.30;4.60;;;12.80;99.90;;;;;;5094519;28;20024;-71
2023/05/19 06:43:08;;;;;;;7.10;4.30;;;12.90;99.90;;;;;;5094077;28;20082;-71
2023/05/19 06:45:34;;;;;;;7.65;4.07;;;12.90;99.90;;;;;;5094651;28;20036;-71
2023/05/19 06:48:00;;;;;;;12.40;4.70;;;13.00;99.90;;;;;;5094138;28;20032;-71
2023/05/19 06:50:25;;;;;;;8.07;4.00;;;13.10;99.90;;;;;;5094309;28;20734;-71
2023/05/19 06:52:51;;;;;;;12.73;4.25;;;13.20;99.90;;;;;;5094075;28;20035;-70
2023/05/19 06:55:17;;;;;;;10.18;4.07;;;13.20;99.90;;;;;;5094281;28;20047;-70
2023/05/19 06:57:43;;;;;;;12.32;4.40;;;13.30;99.90;;;;;;5094582;28;20409;-70
2023/05/19 07:00:11;;;;;;;9.90;3.60;;;13.30;99.90;;;;;;5094132;28;20024;-71
2023/05/19 07:02:37;;;;;;;6.97;3.40;;;13.40;99.90;;;;;;5093735;28;20043;-71
2023/05/19 07:05:03;;;;;;;13.13;3.95;;;13.50;99.90;;;;;;5094237;28;20035;-70
2023/05/19 07:07:28;;;;;;;9.55;3.85;;;13.60;99.90;;;;;;5094221;28;20040;-72
2023/05/19 07:09:54;;;;;;;11.25;4.38;;;13.60;99.90;;;;;;5093950;28;20565;-71
2023/05/19 07:12:20;;;;;;;8.23;3.83;;;13.70;99.90;;;;;;5093866;28;20035;-73
2023/05/19 07:14:45;;;;;;;8.77;3.85;;;13.80;99.90;;;;;;5093401;28;20440;-71
2023/05/19 07:17:12;;;;;;;11.48;3.95;;;13.80;99.90;;;;;;5076672;28;20028;-71
2023/05/19 07:19:37;;;;;;;7.28;3.47;;;13.80;99.90;;;;;;5073236;28;20071;-71
2023/05/19 07:22:03;;;;;;;9.88;3.92;;;13.90;99.90;;;;;;5073850;28;20051;-70
2023/05/19 07:24:30;;;;;;;9.13;4.13;;;14.00;99.90;;;;;;5072254;28;20445;-71
2023/05/19 07:26:56;;;;;;;11.40;3.80;;;14.00;99.90;;;;;;5073375;28;20032;-70
2023/05/19 07:29:22;;;;;;;8.65;4.00;;;14.10;99.90;;;;;;5073421;28;20491;-71
2023/05/19 07:31:52;;;;;;;7.78;3.63;;;14.20;99.90;;;;;;5072204;28;20032;-69
2023/05/19 07:34:19;;;;;;;7.72;3.28;;;14.20;99.90;;;;;;5073232;28;20119;-71
2023/05/19 07:36:45;;;;;;;8.90;4.28;;;14.30;99.90;;;;;;5073484;28;20055;-70
2023/05/19 07:39:10;;;;;;;9.18;3.75;;;14.30;99.90;;;;;;5073360;28;20479;-71
2023/05/19 07:41:36;;;;;;;8.85;3.60;;;14.40;99.90;;;;;;5073213;28;20029;-70
2023/05/19 07:44:06;;;;;;;9.88;3.85;;;14.50;99.90;;;;;;5073103;28;20056;-70
2023/05/19 07:46:38;;;;;;;8.55;3.95;;;14.60;99.90;;;;;;5073002;28;20119;-71
2023/05/19 07:49:04;;;;;;;7.68;3.80;;;14.60;99.90;;;;;;5073471;28;20028;-70
2023/05/19 07:51:30;;;;;;;9.98;4.07;;;14.80;99.90;;;;;;5072958;28;20407;-71
2023/05/19 07:53:56;;;;;;;9.88;4.38;;;14.80;99.90;;;;;;5073079;28;20493;-71
2023/05/19 07:56:23;;;;;;;7.38;3.17;;;14.90;99.90;;;;;;5072960;28;20036;-70
2023/05/19 07:58:49;;;;;;;10.57;4.05;;;15.00;99.90;;;;;;5073204;28;20025;-70
2023/05/19 08:01:15;;;;;;;7.53;3.40;;;15.10;99.90;;;;;;5072619;28;20020;-71
2023/05/19 08:03:41;;;;;;;9.38;3.67;;;15.10;99.90;;;;;;5072748;28;20047;-71
2023/05/19 08:06:06;;;;;;;8.45;3.70;;;15.20;99.90;;;;;;5072865;28;20064;-72
2023/05/19 08:08:32;;;;;;;7.60;3.50;;;15.30;99.90;;;;;;5073125;28;20460;-71
2023/05/19 08:11:03;;;;;;;10.73;3.40;;;15.30;99.90;;;;;;5072574;28;20024;-71
2023/05/19 08:13:29;;;;;;;9.75;3.67;;;15.40;99.90;;;;;;5072673;28;20878;-71
2023/05/19 08:15:58;;;;;;;8.73;4.10;;;15.40;99.90;;;;;;5072211;28;20104;-70
2023/05/19 08:18:24;;;;;;;10.15;3.53;;;15.50;99.90;;;;;;5072945;28;20036;-71
2023/05/19 08:20:50;;;;;;;10.82;3.58;;;15.60;99.90;;;;;;5072481;28;20021;-71
2023/05/19 08:23:16;;;;;;;13.23;3.58;;;15.70;99.90;;;;;;5072471;28;20029;-70
2023/05/19 08:25:42;;;;;;;11.10;3.70;;;15.70;99.90;;;;;;5072119;28;20033;-71
2023/05/19 08:28:08;;;;;;;8.55;3.53;;;15.80;99.90;;;;;;5071891;28;20035;-71
2023/05/19 08:30:34;;;;;;;10.73;3.55;;;15.90;99.90;;;;;;5081828;28;20118;-71
2023/05/19 08:33:00;;;;;;;9.73;3.75;;;15.90;99.90;;;;;;5092429;28;20592;-71
2023/05/19 08:35:26;;;;;;;9.07;3.65;;;16.00;99.90;;;;;;5091347;28;20066;-71
2023/05/19 08:37:51;;;;;;;9.48;3.63;;;16.10;99.90;;;;;;5092464;28;20047;-71
2023/05/19 08:40:17;;;;;;;8.50;4.10;;;16.20;99.90;;;;;;5092222;28;20103;-70
2023/05/19 08:42:46;;;;;;;7.45;3.22;;;16.30;99.90;;;;;;5090929;28;20043;-71
2023/05/19 08:45:12;;;;;;;13.75;4.28;;;16.40;99.90;;;;;;5092325;28;20025;-71
2023/05/19 08:47:42;;;;;;;10.48;3.53;;;16.40;99.90;;;;;;5092409;28;20039;-71
2023/05/19 08:50:10;;;;;;;10.02;3.67;;;16.40;99.90;;;;;;5090995;28;20034;-71
2023/05/19 08:52:56;;;;;;;7.97;3.30;;;16.50;99.90;;;;;;5092104;28;20031;-71
2023/05/19 08:55:35;;;;;;;9.30;3.45;;;16.50;99.90;;;;;;5091977;28;20028;-71
2023/05/19 08:58:03;;;;;;;10.52;3.60;;;16.60;99.90;;;;;;5091701;28;20040;-71
2023/05/19 09:00:29;;;;;;;10.32;3.55;;;16.70;99.90;;;;;;5091031;28;20073;-70
2023/05/19 09:02:56;;;;;;;11.25;3.80;;;16.80;99.90;;;;;;5091748;28;20032;-71
2023/05/19 09:05:22;;;;;;;8.70;3.42;;;16.80;99.90;;;;;;5091937;28;20410;-70
2023/05/19 09:07:48;;;;;;;8.40;3.33;;;16.90;99.90;;;;;;5091840;28;20442;-71
2023/05/19 09:10:15;;;;;;;11.60;3.85;;;16.90;99.90;;;;;;5092059;28;20109;-70
2023/05/19 09:12:46;;;;;;;10.30;3.53;;;17.00;99.90;;;;;;5091383;28;20032;-70
2023/05/19 09:15:15;;;;;;;12.02;3.83;;;17.00;99.90;;;;;;5091690;28;20034;-70
2023/05/19 09:17:43;;;;;;;9.60;3.72;;;17.00;99.90;;;;;;5092015;28;20024;-71
2023/05/19 09:20:12;;;;;;;11.13;3.45;;;17.30;99.90;;;;;;5091651;28;20044;-70
2023/05/19 09:22:44;;;;;;;14.98;3.65;;;17.30;99.90;;;;;;5091699;28;20397;-69
2023/05/19 09:25:21;;;;;;;9.93;3.70;;;17.30;99.90;;;;;;5091476;28;20687;-70
2023/05/19 09:27:47;;;;;;;9.05;3.28;;;17.30;99.90;;;;;;5091437;28;20043;-71
2023/05/19 09:30:15;;;;;;;9.73;3.50;;;17.50;99.90;;;;;;5091267;28;20503;-70
2023/05/19 09:32:40;;;;;;;8.13;3.33;;;17.40;99.90;;;;;;5091480;28;20104;-72
2023/05/19 09:35:06;;;;;;;8.98;3.10;;;17.50;99.90;;;;;;5091300;28;20060;-71
2023/05/19 09:37:32;;;;;;;10.93;2.97;;;17.60;99.90;;;;;;5091653;28;20107;-70
2023/05/19 09:39:58;;;;;;;8.40;3.15;;;17.80;99.90;;;;;;5091347;28;20128;-71
2023/05/19 09:42:26;;;;;;;10.88;3.15;;;17.80;99.90;;;;;;5091044;28;20115;-71
2023/05/19 09:45:05;;;;;;;8.27;3.00;;;17.80;99.90;;;;;;5091407;28;20025;-71
2023/05/19 09:47:36;;;;;;;7.03;3.20;;;18.00;99.90;;;;;;5091713;28;20040;-71
2023/05/19 09:50:05;;;;;;;8.43;3.30;;;17.90;99.90;;;;;;5091393;28;20121;-71
2023/05/19 09:52:34;;;;;;;7.93;3.38;;;17.90;99.90;;;;;;5091229;28;20379;-71
2023/05/19 09:55:02;;;;;;;8.88;3.25;;;18.00;99.90;;;;;;5094273;28;20016;-72
2023/05/19 09:57:34;;;;;;;8.18;3.30;;;18.00;99.90;;;;;;5095071;28;20027;-71
2023/05/19 10:00:14;;;;;;;8.02;3.20;;;18.20;99.90;;;;;;5095306;28;20036;-71
2023/05/19 10:02:44;;;;;;;12.05;3.38;;;18.30;99.90;;;;;;5095667;28;20039;-71
2023/05/19 10:05:15;;;;;;;12.35;3.42;;;18.20;99.90;;;;;;5095261;28;20059;-71
2023/05/19 10:07:44;;;;;;;7.50;3.10;;;18.20;99.90;;;;;;5095064;28;20040;-71
2023/05/19 10:10:12;;;;;;;9.15;3.45;;;18.30;99.90;;;;;;5095094;28;20501;-71
2023/05/19 10:12:38;;;;;;;8.70;3.45;;;18.40;99.90;;;;;;5095169;28;20069;-71
2023/05/19 10:15:15;;;;;;;7.47;3.13;;;18.60;99.90;;;;;;5095162;28;20535;-70
2023/05/19 10:17:42;;;;;;;8.13;2.90;;;18.60;99.90;;;;;;5095029;28;20115;-71
2023/05/19 10:20:09;;;;;;;8.55;3.42;;;18.50;99.90;;;;;;5095315;28;20087;-71
2023/05/19 10:22:36;;;;;;;8.52;3.28;;;18.30;99.90;;;;;;5094840;28;20082;-71
2023/05/19 10:25:03;;;;;;;6.75;3.38;;;18.10;99.90;;;;;;5094808;28;20444;-71
2023/05/19 10:27:30;;;;;;;8.77;3.17;;;18.10;99.90;;;;;;5094736;28;20059;-71
2023/05/19 10:30:00;;;;;;;8.98;3.15;;;18.30;99.90;;;;;;5094799;28;20027;-70
2023/05/19 10:32:29;;;;;;;8.93;3.28;;;18.50;99.90;;;;;;5094410;28;20059;-72
2023/05/19 10:35:26;;;;;;;10.30;3.28;;;18.50;99.90;;;;;;5094374;28;20068;-73
2023/05/19 10:38:17;;;;;;;6.70;3.08;;;18.40;99.90;;;;;;5094569;28;20478;-73
2023/05/19 10:41:05;;;;;;;9.25;3.13;;;18.60;99.90;;;;;;5093887;28;20086;-73
2023/05/19 10:43:48;;;;;;;5.60;2.83;;;18.70;99.90;;;;;;5094636;28;20514;-73
2023/05/19 10:46:14;;;;;;;12.23;3.60;;;18.80;99.90;;;;;;5094772;28;20032;-72
2023/05/19 10:48:45;;;;;;;12.20;4.00;;;18.80;99.90;;;;;;5094606;28;20085;-72
2023/05/19 10:51:11;;;;;;;6.95;3.38;;;18.90;99.90;;;;;;5094312;28;20024;-72
2023/05/19 10:53:40;;;;;;;9.70;3.58;;;18.90;99.90;;;;;;5094040;28;20032;-72
2023/05/19 10:56:09;;;;;;;8.95;3.65;;;19.10;99.90;;;;;;5094546;28;20490;-72
2023/05/19 10:58:38;;;;;;;7.22;2.95;;;19.20;99.90;;;;;;5094383;28;20028;-72
2023/05/19 11:01:11;;;;;;;11.23;3.58;;;19.20;99.90;;;;;;5094181;28;20103;-72
2023/05/19 11:03:58;;;;;;;8.18;3.22;;;19.10;99.90;;;;;;5094470;28;20032;-72
2023/05/19 11:06:28;;;;;;;10.65;3.60;;;19.10;99.90;;;;;;5092922;28;20046;-72
2023/05/19 11:09:16;;;;;;;8.40;3.22;;;19.10;99.90;;;;;;5093662;28;20058;-72
2023/05/19 11:11:45;;;;;;;8.75;3.60;;;18.80;99.90;;;;;;5093749;28;20486;-72
2023/05/19 11:14:14;;;;;;;10.98;3.50;;;18.90;99.90;;;;;;5093906;28;20036;-72
2023/05/19 11:16:41;;;;;;;9.52;3.08;;;19.20;99.90;;;;;;5093921;28;20016;-72
2023/05/19 11:19:08;;;;;;;7.97;3.08;;;19.40;99.90;;;;;;5094225;28;20453;-72
2023/05/19 11:21:51;;;;;;;7.95;3.13;;;19.50;99.90;;;;;;5093895;28;20035;-71
2023/05/19 11:24:51;;;;;;;7.47;3.50;;;19.50;99.90;;;;;;5093603;28;20024;-72
2023/05/19 11:27:20;;;;;;;8.30;3.55;;;19.60;99.90;;;;;;5089842;28;20506;-72
2023/05/19 11:29:47;;;;;;;6.82;3.28;;;19.40;99.90;;;;;;5090869;28;20024;-71
2023/05/19 11:32:14;;;;;;;7.20;3.65;;;19.50;99.90;;;;;;5074017;28;20427;-73
2023/05/19 11:34:40;;;;;;;7.45;3.05;;;19.50;99.90;;;;;;5073127;28;20094;-72
2023/05/19 11:37:07;;;;;;;11.57;4.22;;;19.70;99.90;;;;;;5073270;28;20046;-71
2023/05/19 11:39:33;;;;;;;7.90;2.97;;;19.90;99.90;;;;;;5073295;28;20410;-72
2023/05/19 11:41:59;;;;;;;7.57;3.35;;;20.20;99.90;;;;;;5073536;28;20036;-72
2023/05/19 11:44:25;;;;;;;7.78;3.17;;;20.10;99.90;;;;;;5073144;28;20024;-73
2023/05/19 11:46:51;;;;;;;7.78;3.45;;;20.30;99.90;;;;;;5072990;28;20040;-71
2023/05/19 11:49:17;;;;;;;10.57;3.42;;;20.40;99.90;;;;;;5073100;28;20024;-73
2023/05/19 11:51:44;;;;;;;8.15;3.45;;;20.20;99.90;;;;;;5072627;28;20089;-73
2023/05/19 11:54:10;;;;;;;10.18;4.10;;;20.10;99.90;;;;;;5073021;28;20020;-73
2023/05/19 11:56:40;;;;;;;11.77;3.83;;;19.90;99.90;;;;;;5073024;28;20033;-73
2023/05/19 11:59:06;;;;;;;8.45;3.40;;;19.70;99.90;;;;;;5072932;28;20051;-73
2023/05/19 12:01:33;;;;;;;9.35;3.70;;;19.60;99.90;;;;;;5072773;28;20100;-73
2023/05/19 12:03:59;;;;;;;13.25;4.03;;;19.70;99.90;;;;;;5073040;28;20158;-71
2023/05/19 12:06:26;;;;;;;11.15;3.88;;;19.50;99.90;;;;;;5072423;28;20032;-72
2023/05/19 12:08:53;;;;;;;9.95;4.10;;;19.40;99.90;;;;;;5072670;28;20035;-73
2023/05/19 12:11:20;;;;;;;9.07;4.03;;;19.70;99.90;;;;;;5072684;28;20141;-72
2023/05/19 12:13:46;;;;;;;9.38;4.03;;;19.80;99.90;;;;;;5072947;28;20028;-72
2023/05/19 12:16:12;;;;;;;9.38;4.22;;;19.60;99.90;;;;;;5072375;28;20119;-72
2023/05/19 12:18:41;;;;;;;8.57;3.80;;;19.50;99.90;;;;;;5072400;28;20020;-72
2023/05/19 12:21:07;;;;;;;10.63;4.20;;;19.60;99.90;;;;;;5072093;28;20105;-73
2023/05/19 12:23:34;;;;;;;10.93;3.90;;;19.40;99.90;;;;;;5072428;28;20052;-72
2023/05/19 12:26:00;;;;;;;12.05;4.43;;;19.40;99.90;;;;;;5072667;28;20033;-72
2023/05/19 12:28:30;;;;;;;10.60;4.22;;;19.50;99.90;;;;;;5072317;28;20078;-72
2023/05/19 12:30:57;;;;;;;10.55;4.35;;;19.40;99.90;;;;;;5072062;28;20078;-72
2023/05/19 12:33:23;;;;;;;12.02;4.20;;;19.50;99.90;;;;;;5072266;28;20039;-72
2023/05/19 12:35:49;;;;;;;9.55;4.10;;;19.50;99.90;;;;;;5071733;28;20052;-70
2023/05/19 12:38:15;;;;;;;11.40;4.10;;;19.60;99.90;;;;;;5072111;28;20025;-72
2023/05/19 12:40:44;;;;;;;12.88;4.30;;;19.50;99.90;;;;;;5072129;28;20457;-72
2023/05/19 12:43:20;;;;;;;8.85;3.60;;;19.10;99.90;;;;;;5072254;28;20067;-73
2023/05/19 12:45:46;;;;;;;9.13;3.70;;;19.20;99.90;;;;;;5071817;28;20409;-72
2023/05/19 12:48:14;;;;;;;10.05;4.47;;;19.50;99.90;;;;;;5071806;28;20406;-72